Home   Weather   USA   New York   Past weeks
Flag for USA

Past Weather in New York, New York, USA — June 2020

Currently: 84 °F. Passing clouds. (Weather station: New York City - Central Park, USA). See more current weather

June 2020 Weather in New York — Graph

°F

High & Low Weather Summary for June 2020

 TemperatureHumidityPressure
High89 °F (Jun 22, 12:51 pm)97% (Jun 3, 3:59 am)30.44 "Hg (Jun 3, 3:59 am)
Low52 °F (Jun 1, 4:51 am)24% (Jun 12, 11:51 am)29.60 "Hg (Jun 3, 11:51 am)
Average73 °F63%29.98 "Hg
* Reported Jun 1 12:51 am — Jun 30 11:51 pm, New York. Weather by CustomWeather, © 2021

Note: Actual official high and low records may vary slightly from our data, if they occured in-between our weather recording intervals... More about our weather records

New York Weather History for June 1, 2020

Scroll right to see more
 ConditionsComfort  
Time TempWeatherWind HumidityBarometerVisibility
12:51 am
Mon, Jun 1
56 °FClear.N/A40%30.19 "Hg10 mi
1:51 am55 °FClear.N/A44%30.19 "Hg10 mi
2:51 am54 °FClear.N/A43%30.20 "Hg10 mi
3:51 am53 °FClear.N/A47%30.19 "Hg10 mi
4:51 am52 °FClear.N/A50%30.20 "Hg10 mi
5:51 am52 °FSunny.N/A50%30.22 "Hg10 mi
6:51 am52 °FSunny.N/A53%30.24 "Hg10 mi
7:51 am54 °FSunny.N/A49%30.25 "Hg10 mi
8:51 am56 °FPassing clouds.N/A47%30.26 "Hg10 mi
9:51 am59 °FSunny.N/A41%30.25 "Hg10 mi
10:51 am62 °FPassing clouds.N/A39%30.23 "Hg10 mi
11:51 am64 °FScattered clouds.N/A37%30.20 "Hg10 mi
12:51 pm63 °FPartly sunny.N/A38%30.16 "Hg10 mi
1:51 pm68 °FPassing clouds.N/A32%30.14 "Hg10 mi
2:51 pm67 °FBroken clouds.N/A35%30.12 "Hg10 mi
3:51 pm69 °FScattered clouds.N/A27%30.09 "Hg10 mi
4:51 pm69 °FScattered clouds.N/A27%30.09 "Hg10 mi
5:51 pm69 °FPassing clouds.N/A27%30.06 "Hg10 mi
6:51 pm68 °FMostly cloudy.N/A30%30.08 "Hg10 mi
7:51 pm68 °FPartly sunny.N/A30%30.09 "Hg10 mi
8:51 pm66 °FPassing clouds.N/A32%30.09 "Hg10 mi
9:51 pm63 °FPassing clouds.N/A38%30.10 "Hg10 mi
10:51 pm62 °FOvercast.N/A46%30.10 "Hg10 mi
11:51 pm61 °FPassing clouds.N/A44%30.10 "Hg10 mi
Weather by CustomWeather, © 2021

See weather overview